sensor_id;sensor_type;location;lat;lon;timestamp;P1;durP1;ratioP1;P2;durP2;ratioP2
1026;SDS011;502;48.746;9.214;2022-09-23T00:02:18;6.47;;;5.87;;
1026;SDS011;502;48.746;9.214;2022-09-23T00:04:46;7.30;;;6.23;;
1026;SDS011;502;48.746;9.214;2022-09-23T00:07:13;7.07;;;6.47;;
1026;SDS011;502;48.746;9.214;2022-09-23T00:09:39;6.20;;;5.40;;
1026;SDS011;502;48.746;9.214;2022-09-23T00:12:06;7.40;;;5.87;;
1026;SDS011;502;48.746;9.214;2022-09-23T00:14:35;6.93;;;6.07;;
1026;SDS011;502;48.746;9.214;2022-09-23T00:17:02;6.80;;;6.20;;
1026;SDS011;502;48.746;9.214;2022-09-23T00:19:29;7.10;;;6.00;;
1026;SDS011;502;48.746;9.214;2022-09-23T00:21:57;5.90;;;5.30;;
1026;SDS011;502;48.746;9.214;2022-09-23T00:24:24;6.53;;;5.33;;
1026;SDS011;502;48.746;9.214;2022-09-23T00:26:51;8.23;;;5.57;;
1026;SDS011;502;48.746;9.214;2022-09-23T00:29:18;5.30;;;4.80;;
1026;SDS011;502;48.746;9.214;2022-09-23T00:31:45;6.73;;;5.90;;
1026;SDS011;502;48.746;9.214;2022-09-23T00:34:12;5.90;;;5.30;;
1026;SDS011;502;48.746;9.214;2022-09-23T00:36:38;6.50;;;5.70;;
1026;SDS011;502;48.746;9.214;2022-09-23T00:39:06;7.00;;;6.30;;
1026;SDS011;502;48.746;9.214;2022-09-23T00:41:33;6.00;;;5.50;;
1026;SDS011;502;48.746;9.214;2022-09-23T00:44:01;7.20;;;5.83;;
1026;SDS011;502;48.746;9.214;2022-09-23T00:46:29;6.50;;;5.90;;
1026;SDS011;502;48.746;9.214;2022-09-23T00:49:00;6.87;;;6.17;;
1026;SDS011;502;48.746;9.214;2022-09-23T00:51:31;7.00;;;5.73;;
1026;SDS011;502;48.746;9.214;2022-09-23T00:53:59;7.00;;;6.30;;
1026;SDS011;502;48.746;9.214;2022-09-23T00:56:28;6.20;;;5.70;;
1026;SDS011;502;48.746;9.214;2022-09-23T00:58:55;6.73;;;6.03;;
1026;SDS011;502;48.746;9.214;2022-09-23T01:01:22;8.10;;;7.23;;
1026;SDS011;502;48.746;9.214;2022-09-23T01:03:49;7.30;;;6.30;;
1026;SDS011;502;48.746;9.214;2022-09-23T01:06:16;6.50;;;5.90;;
1026;SDS011;502;48.746;9.214;2022-09-23T01:08:43;8.00;;;7.20;;
1026;SDS011;502;48.746;9.214;2022-09-23T01:11:17;8.20;;;7.40;;
1026;SDS011;502;48.746;9.214;2022-09-23T01:13:58;6.97;;;6.27;;
1026;SDS011;502;48.746;9.214;2022-09-23T01:16:28;7.20;;;6.50;;
1026;SDS011;502;48.746;9.214;2022-09-23T01:19:01;8.73;;;7.83;;
1026;SDS011;502;48.746;9.214;2022-09-23T01:21:37;7.67;;;6.93;;
1026;SDS011;502;48.746;9.214;2022-09-23T01:30:17;7.30;;;6.60;;
1026;SDS011;502;48.746;9.214;2022-09-23T01:33:18;7.17;;;6.43;;
1026;SDS011;502;48.746;9.214;2022-09-23T01:38:37;8.27;;;7.40;;
1026;SDS011;502;48.746;9.214;2022-09-23T01:41:11;8.80;;;7.90;;
1026;SDS011;502;48.746;9.214;2022-09-23T01:43:42;9.83;;;8.87;;
1026;SDS011;502;48.746;9.214;2022-09-23T01:46:15;7.90;;;7.13;;
1026;SDS011;502;48.746;9.214;2022-09-23T01:48:46;8.20;;;7.40;;
1026;SDS011;502;48.746;9.214;2022-09-23T01:51:18;8.03;;;7.33;;
1026;SDS011;502;48.746;9.214;2022-09-23T01:53:49;8.63;;;7.77;;
1026;SDS011;502;48.746;9.214;2022-09-23T01:56:21;9.50;;;8.30;;
1026;SDS011;502;48.746;9.214;2022-09-23T01:58:50;8.70;;;7.73;;
1026;SDS011;502;48.746;9.214;2022-09-23T02:01:22;7.17;;;6.47;;
1026;SDS011;502;48.746;9.214;2022-09-23T02:03:56;9.10;;;8.20;;
1026;SDS011;502;48.746;9.214;2022-09-23T02:06:26;7.50;;;6.87;;
1026;SDS011;502;48.746;9.214;2022-09-23T02:08:56;9.30;;;7.20;;
1026;SDS011;502;48.746;9.214;2022-09-23T02:11:24;8.83;;;7.87;;
1026;SDS011;502;48.746;9.214;2022-09-23T02:13:52;8.07;;;7.07;;
1026;SDS011;502;48.746;9.214;2022-09-23T02:16:23;10.00;;;7.87;;
1026;SDS011;502;48.746;9.214;2022-09-23T02:18:52;9.07;;;8.13;;
1026;SDS011;502;48.746;9.214;2022-09-23T02:21:25;7.77;;;7.07;;
1026;SDS011;502;48.746;9.214;2022-09-23T02:23:56;7.10;;;6.40;;
1026;SDS011;502;48.746;9.214;2022-09-23T02:26:27;8.53;;;7.73;;
1026;SDS011;502;48.746;9.214;2022-09-23T02:29:00;7.30;;;6.60;;
1026;SDS011;502;48.746;9.214;2022-09-23T02:31:35;9.10;;;7.40;;
1026;SDS011;502;48.746;9.214;2022-09-23T02:34:08;9.20;;;7.30;;
1026;SDS011;502;48.746;9.214;2022-09-23T02:36:42;8.53;;;7.63;;
1026;SDS011;502;48.746;9.214;2022-09-23T02:39:13;8.20;;;7.40;;
1026;SDS011;502;48.746;9.214;2022-09-23T02:41:43;7.10;;;6.40;;
1026;SDS011;502;48.746;9.214;2022-09-23T02:44:17;8.87;;;7.97;;
1026;SDS011;502;48.746;9.214;2022-09-23T02:46:44;8.80;;;7.90;;
1026;SDS011;502;48.746;9.214;2022-09-23T02:49:16;8.57;;;7.73;;
1026;SDS011;502;48.746;9.214;2022-09-23T02:51:45;10.20;;;8.23;;
1026;SDS011;502;48.746;9.214;2022-09-23T02:54:13;9.40;;;8.03;;
1026;SDS011;502;48.746;9.214;2022-09-23T02:56:41;9.00;;;8.10;;
1026;SDS011;502;48.746;9.214;2022-09-23T02:59:08;8.07;;;7.33;;
1026;SDS011;502;48.746;9.214;2022-09-23T03:01:37;8.47;;;7.57;;
1026;SDS011;502;48.746;9.214;2022-09-23T03:04:12;9.73;;;8.03;;
1026;SDS011;502;48.746;9.214;2022-09-23T03:06:46;7.90;;;7.17;;
1026;SDS011;502;48.746;9.214;2022-09-23T03:09:19;8.40;;;7.10;;
1026;SDS011;502;48.746;9.214;2022-09-23T03:11:49;8.30;;;7.60;;
1026;SDS011;502;48.746;9.214;2022-09-23T03:14:22;9.07;;;8.17;;
1026;SDS011;502;48.746;9.214;2022-09-23T03:16:55;8.93;;;8.13;;
1026;SDS011;502;48.746;9.214;2022-09-23T03:19:27;8.57;;;7.67;;
1026;SDS011;502;48.746;9.214;2022-09-23T03:21:59;8.23;;;7.43;;
1026;SDS011;502;48.746;9.214;2022-09-23T03:24:29;9.13;;;8.20;;
1026;SDS011;502;48.746;9.214;2022-09-23T03:26:59;8.50;;;7.70;;
1026;SDS011;502;48.746;9.214;2022-09-23T03:29:28;8.93;;;8.10;;
1026;SDS011;502;48.746;9.214;2022-09-23T03:31:56;8.80;;;7.90;;
1026;SDS011;502;48.746;9.214;2022-09-23T03:34:25;9.40;;;8.47;;
1026;SDS011;502;48.746;9.214;2022-09-23T03:36:55;8.73;;;7.60;;
1026;SDS011;502;48.746;9.214;2022-09-23T03:39:28;8.70;;;7.90;;
1026;SDS011;502;48.746;9.214;2022-09-23T03:41:59;8.83;;;7.93;;
1026;SDS011;502;48.746;9.214;2022-09-23T03:44:29;8.30;;;7.50;;
1026;SDS011;502;48.746;9.214;2022-09-23T03:46:57;8.83;;;7.93;;
1026;SDS011;502;48.746;9.214;2022-09-23T03:49:25;10.60;;;7.53;;
1026;SDS011;502;48.746;9.214;2022-09-23T03:51:54;8.63;;;7.83;;
1026;SDS011;502;48.746;9.214;2022-09-23T03:54:22;8.93;;;8.07;;
1026;SDS011;502;48.746;9.214;2022-09-23T03:56:48;8.90;;;8.10;;
1026;SDS011;502;48.746;9.214;2022-09-23T03:59:15;8.53;;;7.70;;
1026;SDS011;502;48.746;9.214;2022-09-23T04:01:42;8.63;;;7.33;;
1026;SDS011;502;48.746;9.214;2022-09-23T04:04:10;10.80;;;8.30;;
1026;SDS011;502;48.746;9.214;2022-09-23T04:06:36;8.87;;;7.97;;
1026;SDS011;502;48.746;9.214;2022-09-23T04:09:04;9.80;;;8.33;;
1026;SDS011;502;48.746;9.214;2022-09-23T04:11:31;8.47;;;7.40;;
1026;SDS011;502;48.746;9.214;2022-09-23T04:13:58;8.80;;;7.90;;
1026;SDS011;502;48.746;9.214;2022-09-23T04:16:24;8.47;;;7.70;;
1026;SDS011;502;48.746;9.214;2022-09-23T04:18:51;7.90;;;7.00;;
1026;SDS011;502;48.746;9.214;2022-09-23T04:21:18;8.77;;;7.87;;
1026;SDS011;502;48.746;9.214;2022-09-23T04:23:44;8.40;;;7.60;;
1026;SDS011;502;48.746;9.214;2022-09-23T04:26:13;9.33;;;7.47;;
1026;SDS011;502;48.746;9.214;2022-09-23T04:28:40;8.63;;;7.57;;
1026;SDS011;502;48.746;9.214;2022-09-23T04:31:07;7.80;;;7.10;;
1026;SDS011;502;48.746;9.214;2022-09-23T04:33:34;7.70;;;7.03;;
1026;SDS011;502;48.746;9.214;2022-09-23T04:36:01;8.70;;;7.57;;
1026;SDS011;502;48.746;9.214;2022-09-23T04:38:28;8.60;;;7.80;;
1026;SDS011;502;48.746;9.214;2022-09-23T04:40:55;8.43;;;7.63;;
1026;SDS011;502;48.746;9.214;2022-09-23T04:43:23;8.30;;;7.50;;
1026;SDS011;502;48.746;9.214;2022-09-23T04:45:56;7.83;;;7.13;;
1026;SDS011;502;48.746;9.214;2022-09-23T04:48:24;9.20;;;8.30;;
1026;SDS011;502;48.746;9.214;2022-09-23T04:50:50;8.60;;;7.77;;
1026;SDS011;502;48.746;9.214;2022-09-23T04:53:17;9.00;;;8.10;;
1026;SDS011;502;48.746;9.214;2022-09-23T04:55:44;10.37;;;9.27;;
1026;SDS011;502;48.746;9.214;2022-09-23T04:58:11;10.00;;;9.00;;
1026;SDS011;502;48.746;9.214;2022-09-23T05:00:39;12.63;;;9.13;;
1026;SDS011;502;48.746;9.214;2022-09-23T05:03:06;9.87;;;8.87;;
1026;SDS011;502;48.746;9.214;2022-09-23T05:05:32;9.70;;;8.73;;
1026;SDS011;502;48.746;9.214;2022-09-23T05:07:59;9.33;;;8.43;;
1026;SDS011;502;48.746;9.214;2022-09-23T05:10:26;10.07;;;9.13;;
1026;SDS011;502;48.746;9.214;2022-09-23T05:12:53;10.00;;;8.20;;
1026;SDS011;502;48.746;9.214;2022-09-23T05:15:19;10.50;;;9.50;;
1026;SDS011;502;48.746;9.214;2022-09-23T05:17:47;10.13;;;9.17;;
1026;SDS011;502;48.746;9.214;2022-09-23T05:20:14;8.97;;;8.07;;
1026;SDS011;502;48.746;9.214;2022-09-23T05:22:41;10.43;;;8.77;;
1026;SDS011;502;48.746;9.214;2022-09-23T05:25:09;11.03;;;9.47;;
1026;SDS011;502;48.746;9.214;2022-09-23T05:27:35;12.30;;;9.93;;
1026;SDS011;502;48.746;9.214;2022-09-23T05:30:02;11.77;;;9.37;;
1026;SDS011;502;48.746;9.214;2022-09-23T05:32:29;11.37;;;10.17;;
1026;SDS011;502;48.746;9.214;2022-09-23T05:34:58;10.53;;;9.40;;
1026;SDS011;502;48.746;9.214;2022-09-23T05:37:25;10.60;;;9.50;;
1026;SDS011;502;48.746;9.214;2022-09-23T05:39:52;16.37;;;10.40;;
1026;SDS011;502;48.746;9.214;2022-09-23T05:42:19;10.30;;;9.17;;
1026;SDS011;502;48.746;9.214;2022-09-23T05:44:46;10.33;;;8.87;;
1026;SDS011;502;48.746;9.214;2022-09-23T05:47:13;9.83;;;8.83;;
1026;SDS011;502;48.746;9.214;2022-09-23T05:49:40;10.10;;;9.10;;
1026;SDS011;502;48.746;9.214;2022-09-23T05:52:08;10.20;;;9.20;;
1026;SDS011;502;48.746;9.214;2022-09-23T05:54:35;10.83;;;9.83;;
1026;SDS011;502;48.746;9.214;2022-09-23T05:57:02;12.07;;;8.37;;
1026;SDS011;502;48.746;9.214;2022-09-23T05:59:30;12.13;;;9.23;;
1026;SDS011;502;48.746;9.214;2022-09-23T06:01:56;9.50;;;8.60;;
1026;SDS011;502;48.746;9.214;2022-09-23T06:04:24;12.00;;;9.33;;
1026;SDS011;502;48.746;9.214;2022-09-23T06:06:50;11.40;;;8.80;;
1026;SDS011;502;48.746;9.214;2022-09-23T06:09:18;10.37;;;8.83;;
1026;SDS011;502;48.746;9.214;2022-09-23T06:11:45;10.87;;;8.90;;
1026;SDS011;502;48.746;9.214;2022-09-23T06:14:12;10.33;;;9.33;;
1026;SDS011;502;48.746;9.214;2022-09-23T06:16:39;15.30;;;10.00;;
1026;SDS011;502;48.746;9.214;2022-09-23T06:19:05;10.00;;;8.73;;
1026;SDS011;502;48.746;9.214;2022-09-23T06:21:34;10.80;;;8.70;;
1026;SDS011;502;48.746;9.214;2022-09-23T06:24:02;13.70;;;8.73;;
1026;SDS011;502;48.746;9.214;2022-09-23T06:26:30;10.13;;;9.10;;
1026;SDS011;502;48.746;9.214;2022-09-23T06:28:59;10.03;;;9.03;;
1026;SDS011;502;48.746;9.214;2022-09-23T06:31:26;10.00;;;8.70;;
1026;SDS011;502;48.746;9.214;2022-09-23T06:33:54;10.80;;;9.47;;
1026;SDS011;502;48.746;9.214;2022-09-23T06:36:20;11.90;;;8.60;;
1026;SDS011;502;48.746;9.214;2022-09-23T06:38:47;9.37;;;8.10;;
1026;SDS011;502;48.746;9.214;2022-09-23T06:41:14;10.13;;;8.00;;
1026;SDS011;502;48.746;9.214;2022-09-23T06:43:42;15.13;;;8.60;;
1026;SDS011;502;48.746;9.214;2022-09-23T06:46:10;9.40;;;7.50;;
1026;SDS011;502;48.746;9.214;2022-09-23T06:48:39;9.53;;;7.87;;
1026;SDS011;502;48.746;9.214;2022-09-23T06:51:08;9.70;;;8.00;;
1026;SDS011;502;48.746;9.214;2022-09-23T06:53:36;9.20;;;8.07;;
1026;SDS011;502;48.746;9.214;2022-09-23T06:56:04;10.90;;;8.00;;
1026;SDS011;502;48.746;9.214;2022-09-23T06:58:31;7.93;;;7.13;;
1026;SDS011;502;48.746;9.214;2022-09-23T07:01:00;11.77;;;7.60;;
1026;SDS011;502;48.746;9.214;2022-09-23T07:03:27;13.70;;;7.60;;
1026;SDS011;502;48.746;9.214;2022-09-23T07:05:56;8.30;;;7.53;;
1026;SDS011;502;48.746;9.214;2022-09-23T07:08:22;11.40;;;8.20;;
1026;SDS011;502;48.746;9.214;2022-09-23T07:10:50;11.33;;;7.50;;
1026;SDS011;502;48.746;9.214;2022-09-23T07:13:18;7.97;;;7.20;;
1026;SDS011;502;48.746;9.214;2022-09-23T07:15:47;10.47;;;7.10;;
1026;SDS011;502;48.746;9.214;2022-09-23T07:18:16;7.80;;;7.00;;
1026;SDS011;502;48.746;9.214;2022-09-23T07:20:43;7.70;;;6.87;;
1026;SDS011;502;48.746;9.214;2022-09-23T07:23:10;23.77;;;7.03;;
1026;SDS011;502;48.746;9.214;2022-09-23T07:25:37;7.57;;;6.83;;
1026;SDS011;502;48.746;9.214;2022-09-23T07:28:04;7.93;;;6.27;;
1026;SDS011;502;48.746;9.214;2022-09-23T07:30:31;8.50;;;7.53;;
1026;SDS011;502;48.746;9.214;2022-09-23T07:33:00;7.77;;;7.00;;
1026;SDS011;502;48.746;9.214;2022-09-23T07:35:29;8.57;;;6.60;;
1026;SDS011;502;48.746;9.214;2022-09-23T07:37:55;7.47;;;6.77;;
1026;SDS011;502;48.746;9.214;2022-09-23T07:40:22;6.30;;;5.70;;
1026;SDS011;502;48.746;9.214;2022-09-23T07:42:49;6.93;;;6.33;;
1026;SDS011;502;48.746;9.214;2022-09-23T07:45:15;6.20;;;5.60;;
1026;SDS011;502;48.746;9.214;2022-09-23T07:47:42;6.73;;;6.03;;
1026;SDS011;502;48.746;9.214;2022-09-23T07:50:09;8.07;;;5.80;;
1026;SDS011;502;48.746;9.214;2022-09-23T07:52:38;8.33;;;6.43;;
1026;SDS011;502;48.746;9.214;2022-09-23T07:55:08;7.37;;;6.53;;
1026;SDS011;502;48.746;9.214;2022-09-23T07:57:34;7.20;;;6.00;;
1026;SDS011;502;48.746;9.214;2022-09-23T08:00:02;7.03;;;6.33;;
1026;SDS011;502;48.746;9.214;2022-09-23T08:02:36;15.27;;;6.40;;
1026;SDS011;502;48.746;9.214;2022-09-23T08:05:03;6.20;;;5.63;;
1026;SDS011;502;48.746;9.214;2022-09-23T08:07:31;7.30;;;5.80;;
1026;SDS011;502;48.746;9.214;2022-09-23T08:09:59;7.13;;;5.93;;
1026;SDS011;502;48.746;9.214;2022-09-23T08:12:27;6.60;;;5.63;;
1026;SDS011;502;48.746;9.214;2022-09-23T08:14:54;8.43;;;6.60;;
1026;SDS011;502;48.746;9.214;2022-09-23T08:17:21;7.77;;;6.30;;
1026;SDS011;502;48.746;9.214;2022-09-23T08:19:47;8.13;;;5.87;;
1026;SDS011;502;48.746;9.214;2022-09-23T08:22:14;5.97;;;5.13;;
1026;SDS011;502;48.746;9.214;2022-09-23T08:24:41;6.10;;;5.57;;
1026;SDS011;502;48.746;9.214;2022-09-23T08:27:09;6.73;;;6.03;;
1026;SDS011;502;48.746;9.214;2022-09-23T08:29:36;6.70;;;6.10;;
1026;SDS011;502;48.746;9.214;2022-09-23T08:32:03;6.20;;;5.60;;
1026;SDS011;502;48.746;9.214;2022-09-23T08:34:30;6.17;;;5.67;;
1026;SDS011;502;48.746;9.214;2022-09-23T08:36:56;6.13;;;5.57;;
1026;SDS011;502;48.746;9.214;2022-09-23T08:39:23;6.50;;;5.57;;
1026;SDS011;502;48.746;9.214;2022-09-23T08:41:57;6.23;;;5.70;;
1026;SDS011;502;48.746;9.214;2022-09-23T08:44:30;5.90;;;5.30;;
1026;SDS011;502;48.746;9.214;2022-09-23T08:47:06;5.73;;;5.20;;
1026;SDS011;502;48.746;9.214;2022-09-23T08:49:37;8.03;;;5.97;;
1026;SDS011;502;48.746;9.214;2022-09-23T08:52:08;6.53;;;5.93;;
1026;SDS011;502;48.746;9.214;2022-09-23T08:54:39;7.03;;;6.40;;
1026;SDS011;502;48.746;9.214;2022-09-23T08:57:06;6.00;;;5.33;;
1026;SDS011;502;48.746;9.214;2022-09-23T08:59:38;6.70;;;6.10;;
1026;SDS011;502;48.746;9.214;2022-09-23T09:02:09;6.70;;;6.10;;
1026;SDS011;502;48.746;9.214;2022-09-23T09:04:41;6.97;;;6.27;;
1026;SDS011;502;48.746;9.214;2022-09-23T09:07:09;12.30;;;6.70;;
1026;SDS011;502;48.746;9.214;2022-09-23T09:09:39;8.33;;;6.13;;
1026;SDS011;502;48.746;9.214;2022-09-23T09:12:09;6.73;;;6.03;;
1026;SDS011;502;48.746;9.214;2022-09-23T09:14:42;6.90;;;6.07;;
1026;SDS011;502;48.746;9.214;2022-09-23T09:17:13;6.67;;;6.10;;
1026;SDS011;502;48.746;9.214;2022-09-23T09:19:53;7.10;;;6.40;;
1026;SDS011;502;48.746;9.214;2022-09-23T09:22:21;7.37;;;5.80;;
1026;SDS011;502;48.746;9.214;2022-09-23T09:25:10;6.83;;;6.17;;
1026;SDS011;502;48.746;9.214;2022-09-23T09:27:44;6.23;;;5.73;;
1026;SDS011;502;48.746;9.214;2022-09-23T09:30:14;7.37;;;6.67;;
1026;SDS011;502;48.746;9.214;2022-09-23T09:32:41;6.80;;;6.20;;
1026;SDS011;502;48.746;9.214;2022-09-23T09:35:17;6.10;;;5.30;;
1026;SDS011;502;48.746;9.214;2022-09-23T09:37:47;6.30;;;5.47;;
1026;SDS011;502;48.746;9.214;2022-09-23T09:40:14;7.00;;;6.13;;
1026;SDS011;502;48.746;9.214;2022-09-23T09:42:44;6.07;;;5.50;;
1026;SDS011;502;48.746;9.214;2022-09-23T09:45:15;5.63;;;5.20;;
1026;SDS011;502;48.746;9.214;2022-09-23T09:47:50;5.57;;;5.00;;
1026;SDS011;502;48.746;9.214;2022-09-23T09:53:13;5.00;;;4.50;;
1026;SDS011;502;48.746;9.214;2022-09-23T09:55:40;5.90;;;5.20;;
1026;SDS011;502;48.746;9.214;2022-09-23T09:58:09;7.40;;;5.23;;
1026;SDS011;502;48.746;9.214;2022-09-23T10:00:42;6.33;;;5.73;;
1026;SDS011;502;48.746;9.214;2022-09-23T10:06:11;5.60;;;4.70;;
1026;SDS011;502;48.746;9.214;2022-09-23T10:08:39;6.27;;;4.07;;
1026;SDS011;502;48.746;9.214;2022-09-23T10:11:10;5.03;;;4.47;;
1026;SDS011;502;48.746;9.214;2022-09-23T10:13:39;5.27;;;3.90;;
1026;SDS011;502;48.746;9.214;2022-09-23T10:16:08;6.73;;;5.00;;
1026;SDS011;502;48.746;9.214;2022-09-23T10:18:36;7.27;;;6.67;;
1026;SDS011;502;48.746;9.214;2022-09-23T10:21:07;5.07;;;4.57;;
1026;SDS011;502;48.746;9.214;2022-09-23T10:23:37;7.70;;;5.87;;
1026;SDS011;502;48.746;9.214;2022-09-23T10:26:06;4.90;;;4.40;;
1026;SDS011;502;48.746;9.214;2022-09-23T10:28:39;4.67;;;4.13;;
1026;SDS011;502;48.746;9.214;2022-09-23T10:31:11;4.60;;;4.17;;
1026;SDS011;502;48.746;9.214;2022-09-23T10:33:40;4.93;;;4.53;;
1026;SDS011;502;48.746;9.214;2022-09-23T10:36:10;7.30;;;4.70;;
1026;SDS011;502;48.746;9.214;2022-09-23T10:38:36;6.20;;;4.97;;
1026;SDS011;502;48.746;9.214;2022-09-23T10:41:04;5.37;;;4.23;;
1026;SDS011;502;48.746;9.214;2022-09-23T10:43:49;5.17;;;4.67;;
1026;SDS011;502;48.746;9.214;2022-09-23T10:46:48;4.90;;;4.27;;
1026;SDS011;502;48.746;9.214;2022-09-23T10:52:17;4.70;;;4.30;;
1026;SDS011;502;48.746;9.214;2022-09-23T10:54:57;4.53;;;4.00;;
1026;SDS011;502;48.746;9.214;2022-09-23T10:57:33;5.80;;;4.23;;
1026;SDS011;502;48.746;9.214;2022-09-23T11:00:12;6.57;;;5.03;;
1026;SDS011;502;48.746;9.214;2022-09-23T11:02:57;4.33;;;3.80;;
1026;SDS011;502;48.746;9.214;2022-09-23T11:05:34;8.83;;;4.70;;
1026;SDS011;502;48.746;9.214;2022-09-23T11:08:08;4.30;;;3.90;;
1026;SDS011;502;48.746;9.214;2022-09-23T11:10:53;5.03;;;4.60;;
1026;SDS011;502;48.746;9.214;2022-09-23T11:13:29;5.53;;;4.07;;
1026;SDS011;502;48.746;9.214;2022-09-23T11:16:07;4.57;;;3.90;;
1026;SDS011;502;48.746;9.214;2022-09-23T11:18:46;6.30;;;4.27;;
1026;SDS011;502;48.746;9.214;2022-09-23T11:21:25;4.20;;;3.80;;
1026;SDS011;502;48.746;9.214;2022-09-23T11:24:10;4.57;;;4.13;;
1026;SDS011;502;48.746;9.214;2022-09-23T11:26:47;4.90;;;3.97;;
1026;SDS011;502;48.746;9.214;2022-09-23T11:29:24;5.43;;;4.07;;
1026;SDS011;502;48.746;9.214;2022-09-23T11:32:06;7.00;;;4.30;;
1026;SDS011;502;48.746;9.214;2022-09-23T11:34:45;4.87;;;4.47;;
1026;SDS011;502;48.746;9.214;2022-09-23T11:37:24;4.43;;;4.03;;
1026;SDS011;502;48.746;9.214;2022-09-23T11:39:55;4.40;;;4.00;;
1026;SDS011;502;48.746;9.214;2022-09-23T11:42:25;4.37;;;3.50;;
1026;SDS011;502;48.746;9.214;2022-09-23T11:44:55;4.87;;;4.10;;
1026;SDS011;502;48.746;9.214;2022-09-23T11:47:24;6.40;;;4.37;;
1026;SDS011;502;48.746;9.214;2022-09-23T11:49:56;6.00;;;4.37;;
1026;SDS011;502;48.746;9.214;2022-09-23T11:52:25;5.77;;;4.40;;
1026;SDS011;502;48.746;9.214;2022-09-23T11:54:55;6.17;;;5.57;;
1026;SDS011;502;48.746;9.214;2022-09-23T11:57:23;7.43;;;5.33;;
1026;SDS011;502;48.746;9.214;2022-09-23T11:59:55;6.30;;;5.70;;
1026;SDS011;502;48.746;9.214;2022-09-23T12:02:26;5.33;;;4.77;;
1026;SDS011;502;48.746;9.214;2022-09-23T12:04:56;5.70;;;5.20;;
1026;SDS011;502;48.746;9.214;2022-09-23T12:07:26;6.20;;;5.60;;
1026;SDS011;502;48.746;9.214;2022-09-23T12:09:58;5.70;;;5.17;;
1026;SDS011;502;48.746;9.214;2022-09-23T12:12:28;7.23;;;6.17;;
1026;SDS011;502;48.746;9.214;2022-09-23T12:15:03;5.67;;;5.17;;
1026;SDS011;502;48.746;9.214;2022-09-23T12:17:51;5.30;;;4.80;;
1026;SDS011;502;48.746;9.214;2022-09-23T12:20:41;6.60;;;6.07;;
1026;SDS011;502;48.746;9.214;2022-09-23T12:23:16;6.00;;;5.40;;
1026;SDS011;502;48.746;9.214;2022-09-23T12:25:51;6.00;;;5.50;;
1026;SDS011;502;48.746;9.214;2022-09-23T12:28:21;8.80;;;5.27;;
1026;SDS011;502;48.746;9.214;2022-09-23T12:30:50;6.60;;;5.90;;
1026;SDS011;502;48.746;9.214;2022-09-23T12:33:21;6.87;;;5.27;;
1026;SDS011;502;48.746;9.214;2022-09-23T12:38:57;5.03;;;4.53;;
1026;SDS011;502;48.746;9.214;2022-09-23T12:41:26;5.30;;;4.80;;
1026;SDS011;502;48.746;9.214;2022-09-23T12:43:58;5.80;;;5.20;;
1026;SDS011;502;48.746;9.214;2022-09-23T12:46:26;8.03;;;5.23;;
1026;SDS011;502;48.746;9.214;2022-09-23T12:48:57;7.00;;;5.63;;
1026;SDS011;502;48.746;9.214;2022-09-23T12:51:28;6.63;;;5.80;;
1026;SDS011;502;48.746;9.214;2022-09-23T12:56:56;9.30;;;5.40;;
1026;SDS011;502;48.746;9.214;2022-09-23T12:59:28;6.13;;;5.63;;
1026;SDS011;502;48.746;9.214;2022-09-23T13:01:57;6.10;;;5.50;;
1026;SDS011;502;48.746;9.214;2022-09-23T13:04:55;6.30;;;5.30;;
1026;SDS011;502;48.746;9.214;2022-09-23T13:07:44;5.83;;;5.33;;
1026;SDS011;502;48.746;9.214;2022-09-23T13:10:14;6.33;;;5.80;;
1026;SDS011;502;48.746;9.214;2022-09-23T13:12:42;5.20;;;4.70;;
1026;SDS011;502;48.746;9.214;2022-09-23T13:15:14;5.23;;;4.73;;
1026;SDS011;502;48.746;9.214;2022-09-23T13:17:42;6.20;;;5.10;;
1026;SDS011;502;48.746;9.214;2022-09-23T13:23:17;5.50;;;5.00;;
1026;SDS011;502;48.746;9.214;2022-09-23T13:25:46;6.20;;;5.70;;
1026;SDS011;502;48.746;9.214;2022-09-23T13:28:20;7.33;;;6.00;;
1026;SDS011;502;48.746;9.214;2022-09-23T13:30:51;6.13;;;5.53;;
1026;SDS011;502;48.746;9.214;2022-09-23T13:33:21;6.60;;;5.30;;
1026;SDS011;502;48.746;9.214;2022-09-23T13:35:54;6.67;;;5.47;;
1026;SDS011;502;48.746;9.214;2022-09-23T13:38:24;7.20;;;6.50;;
1026;SDS011;502;48.746;9.214;2022-09-23T13:40:54;7.10;;;6.50;;
1026;SDS011;502;48.746;9.214;2022-09-23T13:43:24;6.13;;;5.53;;
1026;SDS011;502;48.746;9.214;2022-09-23T13:45:52;5.80;;;5.20;;
1026;SDS011;502;48.746;9.214;2022-09-23T13:48:20;6.40;;;5.77;;
1026;SDS011;502;48.746;9.214;2022-09-23T13:50:51;5.70;;;5.20;;
1026;SDS011;502;48.746;9.214;2022-09-23T13:53:21;7.20;;;6.60;;
1026;SDS011;502;48.746;9.214;2022-09-23T13:55:58;6.40;;;5.80;;
1026;SDS011;502;48.746;9.214;2022-09-23T13:58:27;6.90;;;5.80;;
1026;SDS011;502;48.746;9.214;2022-09-23T14:00:56;6.10;;;5.50;;
1026;SDS011;502;48.746;9.214;2022-09-23T14:03:24;6.70;;;5.70;;
1026;SDS011;502;48.746;9.214;2022-09-23T14:05:53;8.33;;;6.00;;
1026;SDS011;502;48.746;9.214;2022-09-23T14:08:20;11.23;;;5.93;;
1026;SDS011;502;48.746;9.214;2022-09-23T14:10:49;7.30;;;5.80;;
1026;SDS011;502;48.746;9.214;2022-09-23T14:13:19;9.30;;;6.37;;
1026;SDS011;502;48.746;9.214;2022-09-23T14:15:48;7.77;;;5.87;;
1026;SDS011;502;48.746;9.214;2022-09-23T14:18:17;6.43;;;5.93;;
1026;SDS011;502;48.746;9.214;2022-09-23T14:20:48;9.23;;;7.00;;
1026;SDS011;502;48.746;9.214;2022-09-23T14:23:16;7.53;;;6.83;;
1026;SDS011;502;48.746;9.214;2022-09-23T14:25:43;10.20;;;7.37;;
1026;SDS011;502;48.746;9.214;2022-09-23T14:28:14;9.30;;;6.50;;
1026;SDS011;502;48.746;9.214;2022-09-23T14:30:42;7.07;;;6.37;;
1026;SDS011;502;48.746;9.214;2022-09-23T14:33:15;9.70;;;7.00;;
1026;SDS011;502;48.746;9.214;2022-09-23T14:35:47;7.30;;;6.70;;
1026;SDS011;502;48.746;9.214;2022-09-23T14:38:23;6.90;;;6.20;;
1026;SDS011;502;48.746;9.214;2022-09-23T14:41:12;7.60;;;6.77;;
1026;SDS011;502;48.746;9.214;2022-09-23T14:43:47;9.73;;;7.57;;
1026;SDS011;502;48.746;9.214;2022-09-23T14:46:17;11.67;;;6.40;;
1026;SDS011;502;48.746;9.214;2022-09-23T14:48:51;8.10;;;6.70;;
1026;SDS011;502;48.746;9.214;2022-09-23T14:51:20;8.07;;;7.27;;
1026;SDS011;502;48.746;9.214;2022-09-23T14:53:48;8.17;;;6.33;;
1026;SDS011;502;48.746;9.214;2022-09-23T14:56:23;7.63;;;6.93;;
1026;SDS011;502;48.746;9.214;2022-09-23T14:58:52;7.60;;;6.70;;
1026;SDS011;502;48.746;9.214;2022-09-23T15:06:58;7.87;;;7.10;;
1026;SDS011;502;48.746;9.214;2022-09-23T15:09:27;6.83;;;6.00;;
1026;SDS011;502;48.746;9.214;2022-09-23T15:11:56;7.10;;;6.40;;
1026;SDS011;502;48.746;9.214;2022-09-23T15:14:28;8.07;;;6.90;;
1026;SDS011;502;48.746;9.214;2022-09-23T15:17:02;7.83;;;6.13;;
1026;SDS011;502;48.746;9.214;2022-09-23T15:19:33;7.17;;;6.47;;
1026;SDS011;502;48.746;9.214;2022-09-23T15:22:00;7.23;;;6.47;;
1026;SDS011;502;48.746;9.214;2022-09-23T15:24:31;6.27;;;5.67;;
1026;SDS011;502;48.746;9.214;2022-09-23T15:27:00;7.13;;;6.10;;
1026;SDS011;502;48.746;9.214;2022-09-23T15:29:28;6.40;;;5.80;;
1026;SDS011;502;48.746;9.214;2022-09-23T15:31:57;7.27;;;6.33;;
1026;SDS011;502;48.746;9.214;2022-09-23T15:34:24;6.33;;;5.73;;
1026;SDS011;502;48.746;9.214;2022-09-23T15:36:51;7.00;;;6.30;;
1026;SDS011;502;48.746;9.214;2022-09-23T15:39:18;6.67;;;6.07;;
1026;SDS011;502;48.746;9.214;2022-09-23T15:41:44;7.43;;;6.10;;
1026;SDS011;502;48.746;9.214;2022-09-23T15:44:12;6.47;;;5.90;;
1026;SDS011;502;48.746;9.214;2022-09-23T15:46:41;8.27;;;5.63;;
1026;SDS011;502;48.746;9.214;2022-09-23T15:49:14;6.10;;;5.50;;
1026;SDS011;502;48.746;9.214;2022-09-23T15:51:47;6.63;;;5.57;;
1026;SDS011;502;48.746;9.214;2022-09-23T15:54:15;7.13;;;5.67;;
1026;SDS011;502;48.746;9.214;2022-09-23T15:56:43;7.27;;;5.17;;
1026;SDS011;502;48.746;9.214;2022-09-23T15:59:10;5.40;;;4.90;;
1026;SDS011;502;48.746;9.214;2022-09-23T16:01:37;6.67;;;5.17;;
1026;SDS011;502;48.746;9.214;2022-09-23T16:04:05;5.90;;;5.40;;
1026;SDS011;502;48.746;9.214;2022-09-23T16:06:32;5.40;;;5.00;;
1026;SDS011;502;48.746;9.214;2022-09-23T16:09:00;5.50;;;4.93;;
1026;SDS011;502;48.746;9.214;2022-09-23T16:11:27;6.77;;;5.90;;
1026;SDS011;502;48.746;9.214;2022-09-23T16:13:55;8.50;;;5.20;;
1026;SDS011;502;48.746;9.214;2022-09-23T16:16:23;5.97;;;5.37;;
1026;SDS011;502;48.746;9.214;2022-09-23T16:18:57;6.03;;;5.50;;